sensor_id;sensor_type;location;lat;lon;timestamp;pressure;altitude;pressure_sealevel;temperature;humidity
62510;BME280;48558;48.242;11.654;2024-02-04T00:03:11;97228.22;;;6.74;100.00
62510;BME280;48558;48.242;11.654;2024-02-04T00:07:23;97219.53;;;6.79;100.00
62510;BME280;48558;48.242;11.654;2024-02-04T00:11:36;97207.38;;;6.77;100.00
62510;BME280;48558;48.242;11.654;2024-02-04T00:15:48;97197.34;;;6.67;100.00
62510;BME280;48558;48.242;11.654;2024-02-04T00:20:02;97213.25;;;6.79;100.00
62510;BME280;48558;48.242;11.654;2024-02-04T00:24:17;97207.09;;;6.71;100.00
62510;BME280;48558;48.242;11.654;2024-02-04T00:28:31;97202.16;;;6.86;100.00
62510;BME280;48558;48.242;11.654;2024-02-04T00:32:44;97194.09;;;6.75;100.00
62510;BME280;48558;48.242;11.654;2024-02-04T00:36:56;97180.00;;;6.73;100.00
62510;BME280;48558;48.242;11.654;2024-02-04T00:41:09;97177.25;;;6.73;100.00
62510;BME280;48558;48.242;11.654;2024-02-04T00:45:22;97168.41;;;6.62;100.00
62510;BME280;48558;48.242;11.654;2024-02-04T00:49:35;97163.81;;;6.52;100.00
62510;BME280;48558;48.242;11.654;2024-02-04T00:53:48;97185.41;;;6.77;100.00
62510;BME280;48558;48.242;11.654;2024-02-04T00:58:01;97165.75;;;6.55;100.00
62510;BME280;48558;48.242;11.654;2024-02-04T01:02:14;97175.88;;;6.58;100.00
62510;BME280;48558;48.242;11.654;2024-02-04T01:06:27;97156.41;;;6.49;100.00
62510;BME280;48558;48.242;11.654;2024-02-04T01:10:57;97144.94;;;6.31;100.00
62510;BME280;48558;48.242;11.654;2024-02-04T01:15:09;97142.59;;;6.29;100.00
62510;BME280;48558;48.242;11.654;2024-02-04T01:19:22;97147.56;;;6.11;100.00
62510;BME280;48558;48.242;11.654;2024-02-04T01:23:35;97157.09;;;6.00;100.00
62510;BME280;48558;48.242;11.654;2024-02-04T01:27:48;97154.28;;;6.07;100.00
62510;BME280;48558;48.242;11.654;2024-02-04T01:32:00;97159.47;;;6.01;100.00
62510;BME280;48558;48.242;11.654;2024-02-04T01:36:13;97159.75;;;6.07;100.00
62510;BME280;48558;48.242;11.654;2024-02-04T01:40:25;97173.19;;;6.28;100.00
62510;BME280;48558;48.242;11.654;2024-02-04T01:44:38;97182.06;;;6.39;100.00
62510;BME280;48558;48.242;11.654;2024-02-04T01:48:51;97157.97;;;6.23;100.00
62510;BME280;48558;48.242;11.654;2024-02-04T01:53:03;97162.41;;;6.40;100.00
62510;BME280;48558;48.242;11.654;2024-02-04T01:57:16;97148.56;;;6.51;100.00
62510;BME280;48558;48.242;11.654;2024-02-04T02:01:29;97176.84;;;6.48;100.00
62510;BME280;48558;48.242;11.654;2024-02-04T02:05:42;97190.19;;;6.46;100.00
62510;BME280;48558;48.242;11.654;2024-02-04T02:09:55;97172.53;;;6.47;100.00
62510;BME280;48558;48.242;11.654;2024-02-04T02:14:12;97180.81;;;6.43;100.00
62510;BME280;48558;48.242;11.654;2024-02-04T02:19:02;97187.81;;;6.48;100.00
62510;BME280;48558;48.242;11.654;2024-02-04T02:23:14;97165.84;;;6.48;100.00
62510;BME280;48558;48.242;11.654;2024-02-04T02:27:34;97150.31;;;6.38;100.00
62510;BME280;48558;48.242;11.654;2024-02-04T02:31:46;97149.22;;;6.32;100.00
62510;BME280;48558;48.242;11.654;2024-02-04T02:36:02;97141.22;;;6.44;100.00
62510;BME280;48558;48.242;11.654;2024-02-04T02:40:36;97136.44;;;6.48;100.00
62510;BME280;48558;48.242;11.654;2024-02-04T02:44:53;97133.97;;;6.54;100.00
62510;BME280;48558;48.242;11.654;2024-02-04T02:49:07;97114.88;;;6.47;100.00
62510;BME280;48558;48.242;11.654;2024-02-04T02:53:20;97145.69;;;6.58;100.00
62510;BME280;48558;48.242;11.654;2024-02-04T02:57:33;97088.47;;;6.30;100.00
62510;BME280;48558;48.242;11.654;2024-02-04T03:01:45;97159.47;;;6.55;100.00
62510;BME280;48558;48.242;11.654;2024-02-04T03:05:58;97171.53;;;6.61;100.00
62510;BME280;48558;48.242;11.654;2024-02-04T03:10:11;97156.25;;;6.60;100.00
62510;BME280;48558;48.242;11.654;2024-02-04T03:14:23;97166.38;;;6.66;100.00
62510;BME280;48558;48.242;11.654;2024-02-04T03:18:39;97160.25;;;6.55;100.00
62510;BME280;48558;48.242;11.654;2024-02-04T03:22:52;97166.47;;;6.59;100.00
62510;BME280;48558;48.242;11.654;2024-02-04T03:27:05;97169.22;;;6.59;100.00
62510;BME280;48558;48.242;11.654;2024-02-04T03:31:21;97159.78;;;6.60;100.00
62510;BME280;48558;48.242;11.654;2024-02-04T03:35:34;97157.81;;;6.61;100.00
62510;BME280;48558;48.242;11.654;2024-02-04T03:39:49;97172.69;;;6.63;100.00
62510;BME280;48558;48.242;11.654;2024-02-04T03:44:02;97160.25;;;6.55;100.00
62510;BME280;48558;48.242;11.654;2024-02-04T03:48:14;97170.03;;;6.56;100.00
62510;BME280;48558;48.242;11.654;2024-02-04T03:52:28;97169.69;;;6.54;100.00
62510;BME280;48558;48.242;11.654;2024-02-04T03:56:41;97150.97;;;6.45;100.00
62510;BME280;48558;48.242;11.654;2024-02-04T04:00:53;97153.63;;;6.53;100.00
62510;BME280;48558;48.242;11.654;2024-02-04T04:05:10;97138.56;;;6.37;100.00
62510;BME280;48558;48.242;11.654;2024-02-04T04:09:24;97159.03;;;6.33;100.00
62510;BME280;48558;48.242;11.654;2024-02-04T04:13:37;97165.13;;;6.44;100.00
62510;BME280;48558;48.242;11.654;2024-02-04T04:17:50;97146.47;;;6.32;100.00
62510;BME280;48558;48.242;11.654;2024-02-04T04:22:03;97173.47;;;6.37;100.00
62510;BME280;48558;48.242;11.654;2024-02-04T04:26:15;97160.91;;;6.36;100.00
62510;BME280;48558;48.242;11.654;2024-02-04T04:30:28;97163.72;;;6.32;100.00
62510;BME280;48558;48.242;11.654;2024-02-04T04:34:41;97126.47;;;6.05;100.00
62510;BME280;48558;48.242;11.654;2024-02-04T04:38:53;97191.91;;;6.36;100.00
62510;BME280;48558;48.242;11.654;2024-02-04T04:43:06;97180.03;;;6.43;100.00
62510;BME280;48558;48.242;11.654;2024-02-04T04:47:19;97151.28;;;6.24;100.00
62510;BME280;48558;48.242;11.654;2024-02-04T04:51:32;97164.44;;;6.36;100.00
62510;BME280;48558;48.242;11.654;2024-02-04T04:55:45;97154.88;;;6.48;100.00
62510;BME280;48558;48.242;11.654;2024-02-04T04:59:58;97158.19;;;6.36;100.00
62510;BME280;48558;48.242;11.654;2024-02-04T05:04:12;97157.16;;;6.53;100.00
62510;BME280;48558;48.242;11.654;2024-02-04T05:08:25;97135.84;;;6.34;100.00
62510;BME280;48558;48.242;11.654;2024-02-04T05:12:38;97146.22;;;6.49;100.00
62510;BME280;48558;48.242;11.654;2024-02-04T05:16:50;97150.88;;;6.53;100.00
62510;BME280;48558;48.242;11.654;2024-02-04T05:21:04;97068.59;;;5.96;100.00
62510;BME280;48558;48.242;11.654;2024-02-04T05:25:16;97142.38;;;6.43;100.00
62510;BME280;48558;48.242;11.654;2024-02-04T05:29:30;97143.97;;;6.44;100.00
62510;BME280;48558;48.242;11.654;2024-02-04T05:33:43;97157.00;;;6.37;100.00
62510;BME280;48558;48.242;11.654;2024-02-04T05:37:56;97154.28;;;6.33;100.00
62510;BME280;48558;48.242;11.654;2024-02-04T05:42:09;97152.78;;;6.29;100.00
62510;BME280;48558;48.242;11.654;2024-02-04T05:46:21;97137.28;;;6.15;100.00
62510;BME280;48558;48.242;11.654;2024-02-04T05:50:34;97159.84;;;6.30;100.00
62510;BME280;48558;48.242;11.654;2024-02-04T05:54:46;97153.22;;;6.27;100.00
62510;BME280;48558;48.242;11.654;2024-02-04T05:58:59;97126.97;;;6.26;100.00
62510;BME280;48558;48.242;11.654;2024-02-04T06:03:12;97162.22;;;6.28;100.00
62510;BME280;48558;48.242;11.654;2024-02-04T06:07:24;97161.88;;;6.26;100.00
62510;BME280;48558;48.242;11.654;2024-02-04T06:11:37;97173.56;;;6.30;100.00
62510;BME280;48558;48.242;11.654;2024-02-04T06:15:49;97169.94;;;6.36;100.00
62510;BME280;48558;48.242;11.654;2024-02-04T06:20:02;97176.31;;;6.30;100.00
62510;BME280;48558;48.242;11.654;2024-02-04T06:24:15;97176.66;;;6.32;100.00
62510;BME280;48558;48.242;11.654;2024-02-04T06:28:28;97164.50;;;6.33;100.00
62510;BME280;48558;48.242;11.654;2024-02-04T06:32:41;97175.34;;;6.43;100.00
62510;BME280;48558;48.242;11.654;2024-02-04T06:36:54;97182.84;;;6.39;100.00
62510;BME280;48558;48.242;11.654;2024-02-04T06:41:06;97191.34;;;6.48;100.00
62510;BME280;48558;48.242;11.654;2024-02-04T06:45:19;97198.53;;;6.39;100.00
62510;BME280;48558;48.242;11.654;2024-02-04T06:49:31;97201.09;;;6.53;100.00
62510;BME280;48558;48.242;11.654;2024-02-04T06:53:44;97191.75;;;6.47;100.00
62510;BME280;48558;48.242;11.654;2024-02-04T06:57:56;97169.91;;;6.40;100.00
62510;BME280;48558;48.242;11.654;2024-02-04T07:02:09;97197.84;;;6.58;100.00
62510;BME280;48558;48.242;11.654;2024-02-04T07:06:21;97177.25;;;6.46;100.00
62510;BME280;48558;48.242;11.654;2024-02-04T07:10:34;97179.78;;;6.61;100.00
62510;BME280;48558;48.242;11.654;2024-02-04T07:14:47;97158.13;;;6.66;100.00
62510;BME280;48558;48.242;11.654;2024-02-04T07:18:59;97161.69;;;6.63;100.00
62510;BME280;48558;48.242;11.654;2024-02-04T07:23:12;97162.41;;;6.67;100.00
62510;BME280;48558;48.242;11.654;2024-02-04T07:27:25;97181.88;;;6.76;100.00
62510;BME280;48558;48.242;11.654;2024-02-04T07:31:38;97172.78;;;6.83;100.00
62510;BME280;48558;48.242;11.654;2024-02-04T07:35:51;97180.41;;;6.95;100.00
62510;BME280;48558;48.242;11.654;2024-02-04T07:40:04;97167.56;;;6.88;100.00
62510;BME280;48558;48.242;11.654;2024-02-04T07:44:18;97168.72;;;6.91;100.00
62510;BME280;48558;48.242;11.654;2024-02-04T07:48:31;97174.25;;;7.10;100.00
62510;BME280;48558;48.242;11.654;2024-02-04T07:52:44;97161.13;;;6.98;100.00
62510;BME280;48558;48.242;11.654;2024-02-04T07:56:56;97161.66;;;7.13;100.00
62510;BME280;48558;48.242;11.654;2024-02-04T08:01:09;97133.34;;;7.16;100.00
62510;BME280;48558;48.242;11.654;2024-02-04T08:05:22;97150.66;;;7.56;100.00
62510;BME280;48558;48.242;11.654;2024-02-04T08:09:34;97149.41;;;7.60;100.00
62510;BME280;48558;48.242;11.654;2024-02-04T08:13:47;97178.44;;;7.42;100.00
62510;BME280;48558;48.242;11.654;2024-02-04T08:18:00;97160.81;;;7.39;100.00
62510;BME280;48558;48.242;11.654;2024-02-04T08:22:17;97147.97;;;7.33;100.00
62510;BME280;48558;48.242;11.654;2024-02-04T08:26:31;97172.94;;;7.42;100.00
62510;BME280;48558;48.242;11.654;2024-02-04T08:30:43;97157.03;;;7.53;100.00
62510;BME280;48558;48.242;11.654;2024-02-04T08:34:56;97166.88;;;7.50;100.00
62510;BME280;48558;48.242;11.654;2024-02-04T08:39:09;97142.53;;;7.49;100.00
62510;BME280;48558;48.242;11.654;2024-02-04T08:43:22;97129.22;;;7.47;100.00
62510;BME280;48558;48.242;11.654;2024-02-04T08:47:35;97163.28;;;7.53;100.00
62510;BME280;48558;48.242;11.654;2024-02-04T08:51:47;97150.53;;;7.63;100.00
62510;BME280;48558;48.242;11.654;2024-02-04T08:56:00;97136.56;;;7.54;100.00
62510;BME280;48558;48.242;11.654;2024-02-04T09:00:13;97126.34;;;7.74;100.00
62510;BME280;48558;48.242;11.654;2024-02-04T09:04:26;97142.81;;;8.13;100.00
62510;BME280;48558;48.242;11.654;2024-02-04T09:08:39;97125.47;;;7.96;100.00
62510;BME280;48558;48.242;11.654;2024-02-04T09:12:51;97123.06;;;8.18;100.00
62510;BME280;48558;48.242;11.654;2024-02-04T09:17:04;97122.75;;;8.32;100.00
62510;BME280;48558;48.242;11.654;2024-02-04T09:21:18;97074.75;;;8.33;100.00
62510;BME280;48558;48.242;11.654;2024-02-04T09:25:31;97118.91;;;8.62;100.00
62510;BME280;48558;48.242;11.654;2024-02-04T09:29:44;97108.22;;;8.80;99.87
62510;BME280;48558;48.242;11.654;2024-02-04T09:33:56;97114.56;;;9.09;98.34
62510;BME280;48558;48.242;11.654;2024-02-04T09:38:10;97100.13;;;8.89;97.88
62510;BME280;48558;48.242;11.654;2024-02-04T09:42:25;97118.13;;;8.94;97.15
62510;BME280;48558;48.242;11.654;2024-02-04T09:46:42;97117.88;;;8.88;97.43
62510;BME280;48558;48.242;11.654;2024-02-04T09:50:55;97124.53;;;8.91;96.26
62510;BME280;48558;48.242;11.654;2024-02-04T09:55:10;97129.06;;;8.97;98.36
62510;BME280;48558;48.242;11.654;2024-02-04T09:59:25;97145.09;;;9.02;97.27
62510;BME280;48558;48.242;11.654;2024-02-04T10:03:38;97151.19;;;9.26;96.98
62510;BME280;48558;48.242;11.654;2024-02-04T10:07:50;97158.56;;;9.45;94.92
62510;BME280;48558;48.242;11.654;2024-02-04T10:12:04;97167.38;;;9.40;93.34
62510;BME280;48558;48.242;11.654;2024-02-04T10:16:17;97163.69;;;9.59;94.00
62510;BME280;48558;48.242;11.654;2024-02-04T10:20:29;97115.78;;;9.53;93.82
62510;BME280;48558;48.242;11.654;2024-02-04T10:24:42;97138.88;;;10.00;93.88
62510;BME280;48558;48.242;11.654;2024-02-04T10:28:57;97125.19;;;10.09;90.48
62510;BME280;48558;48.242;11.654;2024-02-04T10:33:10;97129.00;;;9.74;90.58
62510;BME280;48558;48.242;11.654;2024-02-04T10:37:23;97130.06;;;9.64;90.94
62510;BME280;48558;48.242;11.654;2024-02-04T10:41:49;97134.41;;;10.32;90.51
62510;BME280;48558;48.242;11.654;2024-02-04T10:46:18;97116.56;;;9.95;89.18
62510;BME280;48558;48.242;11.654;2024-02-04T10:50:35;97134.97;;;9.85;89.25
62510;BME280;48558;48.242;11.654;2024-02-04T10:54:48;97143.19;;;10.01;90.67
62510;BME280;48558;48.242;11.654;2024-02-04T10:59:02;97126.44;;;10.08;88.91
62510;BME280;48558;48.242;11.654;2024-02-04T11:03:17;97101.91;;;10.10;87.58
62510;BME280;48558;48.242;11.654;2024-02-04T11:07:34;97111.34;;;10.13;87.47
62510;BME280;48558;48.242;11.654;2024-02-04T11:11:47;97097.06;;;10.15;87.19
62510;BME280;48558;48.242;11.654;2024-02-04T11:16:04;97096.94;;;10.05;87.69
62510;BME280;48558;48.242;11.654;2024-02-04T11:29:19;97039.78;;;9.77;90.39
62510;BME280;48558;48.242;11.654;2024-02-04T11:33:32;97048.63;;;9.97;90.00
62510;BME280;48558;48.242;11.654;2024-02-04T11:37:46;97039.03;;;10.02;91.01
62510;BME280;48558;48.242;11.654;2024-02-04T11:41:59;97030.25;;;11.13;85.36
62510;BME280;48558;48.242;11.654;2024-02-04T11:46:18;97020.56;;;11.30;82.54
62510;BME280;48558;48.242;11.654;2024-02-04T11:50:31;97036.00;;;11.19;82.42
62510;BME280;48558;48.242;11.654;2024-02-04T11:54:44;97034.25;;;10.65;82.32
62510;BME280;48558;48.242;11.654;2024-02-04T11:58:58;97051.94;;;10.68;82.33
62510;BME280;48558;48.242;11.654;2024-02-04T12:03:11;97052.31;;;11.04;82.69
62510;BME280;48558;48.242;11.654;2024-02-04T12:07:24;97030.50;;;10.72;82.15
62510;BME280;48558;48.242;11.654;2024-02-04T12:11:37;97023.72;;;10.86;82.12
62510;BME280;48558;48.242;11.654;2024-02-04T12:15:50;97020.66;;;10.71;82.76
62510;BME280;48558;48.242;11.654;2024-02-04T12:20:03;97007.16;;;10.73;82.76
62510;BME280;48558;48.242;11.654;2024-02-04T12:24:19;96972.50;;;10.59;82.23
62510;BME280;48558;48.242;11.654;2024-02-04T12:28:32;97000.44;;;10.61;82.25
62510;BME280;48558;48.242;11.654;2024-02-04T12:32:55;96996.25;;;10.69;83.24
62510;BME280;48558;48.242;11.654;2024-02-04T12:37:12;97005.31;;;10.57;84.94
62510;BME280;48558;48.242;11.654;2024-02-04T12:41:25;96993.25;;;10.64;82.85
62510;BME280;48558;48.242;11.654;2024-02-04T12:45:38;96992.06;;;10.65;83.25
62510;BME280;48558;48.242;11.654;2024-02-04T12:49:51;96990.66;;;10.82;82.91
62510;BME280;48558;48.242;11.654;2024-02-04T12:54:07;96968.06;;;10.96;82.80
62510;BME280;48558;48.242;11.654;2024-02-04T12:58:23;96970.50;;;10.94;82.02
62510;BME280;48558;48.242;11.654;2024-02-04T13:02:36;96929.66;;;10.42;83.97
62510;BME280;48558;48.242;11.654;2024-02-04T13:06:48;96953.69;;;10.89;82.17
62510;BME280;48558;48.242;11.654;2024-02-04T13:11:01;96945.38;;;10.67;82.74
62510;BME280;48558;48.242;11.654;2024-02-04T13:15:19;96967.91;;;10.78;82.64
62510;BME280;48558;48.242;11.654;2024-02-04T13:19:33;96973.44;;;10.78;81.89
62510;BME280;48558;48.242;11.654;2024-02-04T13:23:48;96973.19;;;10.85;82.40
62510;BME280;48558;48.242;11.654;2024-02-04T13:28:02;96979.91;;;10.62;82.57
62510;BME280;48558;48.242;11.654;2024-02-04T13:32:16;96975.09;;;10.75;84.45
62510;BME280;48558;48.242;11.654;2024-02-04T13:36:29;96964.81;;;10.76;82.08
62510;BME280;48558;48.242;11.654;2024-02-04T13:40:43;96968.16;;;10.71;83.26
62510;BME280;48558;48.242;11.654;2024-02-04T13:44:56;96957.34;;;10.64;82.45
62510;BME280;48558;48.242;11.654;2024-02-04T13:49:10;96976.69;;;10.64;82.23
62510;BME280;48558;48.242;11.654;2024-02-04T13:53:24;96958.75;;;10.68;82.30
62510;BME280;48558;48.242;11.654;2024-02-04T13:57:37;96970.38;;;10.63;82.79
62510;BME280;48558;48.242;11.654;2024-02-04T14:01:49;96941.75;;;10.57;82.93
62510;BME280;48558;48.242;11.654;2024-02-04T14:06:02;96954.13;;;10.65;84.29
62510;BME280;48558;48.242;11.654;2024-02-04T14:10:16;96927.38;;;10.62;83.70
62510;BME280;48558;48.242;11.654;2024-02-04T14:14:28;96923.63;;;10.56;82.07
62510;BME280;48558;48.242;11.654;2024-02-04T14:18:41;96960.97;;;10.95;81.79
62510;BME280;48558;48.242;11.654;2024-02-04T14:22:58;96940.91;;;11.04;82.25
62510;BME280;48558;48.242;11.654;2024-02-04T14:27:11;96940.97;;;10.91;82.22
62510;BME280;48558;48.242;11.654;2024-02-04T14:31:23;96940.00;;;10.85;82.39
62510;BME280;48558;48.242;11.654;2024-02-04T14:35:36;96946.09;;;10.80;81.47
62510;BME280;48558;48.242;11.654;2024-02-04T14:39:49;96954.41;;;10.80;82.58
62510;BME280;48558;48.242;11.654;2024-02-04T14:44:01;96938.59;;;10.80;82.19
62510;BME280;48558;48.242;11.654;2024-02-04T14:48:14;96925.88;;;10.83;82.30
62510;BME280;48558;48.242;11.654;2024-02-04T14:52:27;96931.50;;;10.79;82.74
62510;BME280;48558;48.242;11.654;2024-02-04T14:56:41;96934.59;;;10.81;84.12
62510;BME280;48558;48.242;11.654;2024-02-04T15:00:53;96947.31;;;10.79;83.83
62510;BME280;48558;48.242;11.654;2024-02-04T15:05:06;96937.81;;;10.80;84.41
62510;BME280;48558;48.242;11.654;2024-02-04T15:09:21;96942.00;;;10.85;83.70
62510;BME280;48558;48.242;11.654;2024-02-04T15:13:34;96941.94;;;10.75;84.38
62510;BME280;48558;48.242;11.654;2024-02-04T15:17:47;96942.31;;;10.87;83.92
62510;BME280;48558;48.242;11.654;2024-02-04T15:22:00;96942.84;;;10.94;83.76
62510;BME280;48558;48.242;11.654;2024-02-04T15:26:14;96934.56;;;10.94;84.17
62510;BME280;48558;48.242;11.654;2024-02-04T15:30:28;96948.13;;;11.01;82.84
62510;BME280;48558;48.242;11.654;2024-02-04T15:34:42;96964.13;;;11.06;83.19
62510;BME280;48558;48.242;11.654;2024-02-04T15:38:55;96949.53;;;11.06;83.13
62510;BME280;48558;48.242;11.654;2024-02-04T15:43:07;96831.47;;;10.29;82.93
62510;BME280;48558;48.242;11.654;2024-02-04T15:47:25;96946.31;;;11.07;81.77
62510;BME280;48558;48.242;11.654;2024-02-04T15:51:39;96947.34;;;11.01;81.59
62510;BME280;48558;48.242;11.654;2024-02-04T15:55:52;96948.88;;;11.02;79.93
62510;BME280;48558;48.242;11.654;2024-02-04T16:00:06;96962.84;;;10.98;80.28
62510;BME280;48558;48.242;11.654;2024-02-04T16:04:29;96952.25;;;10.97;79.73
62510;BME280;48558;48.242;11.654;2024-02-04T16:08:42;96947.22;;;10.82;80.59
62510;BME280;48558;48.242;11.654;2024-02-04T16:12:57;96954.44;;;10.67;80.59
62510;BME280;48558;48.242;11.654;2024-02-04T16:17:13;96955.44;;;10.73;79.48
62510;BME280;48558;48.242;11.654;2024-02-04T16:21:29;96947.84;;;10.65;80.06
62510;BME280;48558;48.242;11.654;2024-02-04T16:25:41;96954.81;;;10.57;79.89
62510;BME280;48558;48.242;11.654;2024-02-04T16:29:54;96956.28;;;10.49;80.80
62510;BME280;48558;48.242;11.654;2024-02-04T16:34:06;96966.00;;;10.41;81.46
62510;BME280;48558;48.242;11.654;2024-02-04T16:38:19;96949.69;;;10.21;81.89
62510;BME280;48558;48.242;11.654;2024-02-04T16:42:31;96971.34;;;10.23;82.55
62510;BME280;48558;48.242;11.654;2024-02-04T16:46:47;96973.34;;;10.22;82.91
62510;BME280;48558;48.242;11.654;2024-02-04T16:51:00;96964.28;;;10.22;82.42
62510;BME280;48558;48.242;11.654;2024-02-04T16:55:12;96983.16;;;10.23;82.46
62510;BME280;48558;48.242;11.654;2024-02-04T16:59:25;96966.03;;;10.16;82.52
62510;BME280;48558;48.242;11.654;2024-02-04T17:03:38;96955.22;;;9.96;83.68
62510;BME280;48558;48.242;11.654;2024-02-04T17:07:51;96986.81;;;10.07;83.98
62510;BME280;48558;48.242;11.654;2024-02-04T17:12:04;96984.81;;;10.08;83.64
62510;BME280;48558;48.242;11.654;2024-02-04T17:16:37;96969.56;;;10.03;84.43
62510;BME280;48558;48.242;11.654;2024-02-04T17:20:59;96969.88;;;9.93;85.29
62510;BME280;48558;48.242;11.654;2024-02-04T17:25:14;96994.53;;;9.87;85.52
62510;BME280;48558;48.242;11.654;2024-02-04T17:29:30;96992.53;;;9.75;86.79
62510;BME280;48558;48.242;11.654;2024-02-04T17:33:53;96986.00;;;9.82;86.73
62510;BME280;48558;48.242;11.654;2024-02-04T17:38:07;96978.31;;;9.77;86.67
62510;BME280;48558;48.242;11.654;2024-02-04T17:42:19;96980.81;;;9.71;87.75
62510;BME280;48558;48.242;11.654;2024-02-04T17:46:32;96981.28;;;9.70;87.58
62510;BME280;48558;48.242;11.654;2024-02-04T17:50:45;96964.69;;;9.57;88.12
62510;BME280;48558;48.242;11.654;2024-02-04T17:54:58;96970.53;;;9.59;87.92
62510;BME280;48558;48.242;11.654;2024-02-04T17:59:13;96971.00;;;9.58;88.17
62510;BME280;48558;48.242;11.654;2024-02-04T18:03:25;96984.25;;;9.63;87.46
62510;BME280;48558;48.242;11.654;2024-02-04T18:07:40;96950.91;;;9.45;87.48
62510;BME280;48558;48.242;11.654;2024-02-04T18:11:54;96959.94;;;9.58;86.58
62510;BME280;48558;48.242;11.654;2024-02-04T18:16:07;96967.56;;;9.66;86.10
62510;BME280;48558;48.242;11.654;2024-02-04T18:20:20;96934.75;;;9.30;86.87
62510;BME280;48558;48.242;11.654;2024-02-04T18:24:33;96965.75;;;9.34;87.42
62510;BME280;48558;48.242;11.654;2024-02-04T18:28:52;96940.72;;;9.29;87.79
62510;BME280;48558;48.242;11.654;2024-02-04T18:33:10;96947.44;;;9.28;88.46
62510;BME280;48558;48.242;11.654;2024-02-04T18:37:23;96954.50;;;9.29;87.86
62510;BME280;48558;48.242;11.654;2024-02-04T18:41:36;96952.41;;;9.33;87.84
62510;BME280;48558;48.242;11.654;2024-02-04T18:45:52;96942.81;;;9.37;87.31
62510;BME280;48558;48.242;11.654;2024-02-04T18:50:07;96947.56;;;9.37;86.79
62510;BME280;48558;48.242;11.654;2024-02-04T18:54:20;96950.50;;;9.17;88.37
62510;BME280;48558;48.242;11.654;2024-02-04T18:58:35;96957.34;;;9.25;88.20
62510;BME280;48558;48.242;11.654;2024-02-04T19:02:47;96961.53;;;9.17;88.69
62510;BME280;48558;48.242;11.654;2024-02-04T19:07:00;96965.06;;;9.18;88.95
62510;BME280;48558;48.242;11.654;2024-02-04T19:11:13;96960.31;;;9.18;88.75
62510;BME280;48558;48.242;11.654;2024-02-04T19:15:25;96954.78;;;9.06;89.31
62510;BME280;48558;48.242;11.654;2024-02-04T19:19:38;96961.63;;;9.14;89.08
62510;BME280;48558;48.242;11.654;2024-02-04T19:23:51;96910.50;;;8.84;89.65
62510;BME280;48558;48.242;11.654;2024-02-04T19:28:04;96925.75;;;8.89;90.63
62510;BME280;48558;48.242;11.654;2024-02-04T19:32:17;96937.91;;;9.04;90.90
62510;BME280;48558;48.242;11.654;2024-02-04T19:36:29;96935.88;;;8.92;91.24
62510;BME280;48558;48.242;11.654;2024-02-04T19:40:42;96934.69;;;9.05;90.88
62510;BME280;48558;48.242;11.654;2024-02-04T19:44:54;96935.03;;;9.07;90.04
62510;BME280;48558;48.242;11.654;2024-02-04T19:49:07;96931.63;;;9.03;90.47
62510;BME280;48558;48.242;11.654;2024-02-04T19:53:19;96908.13;;;8.99;90.22
62510;BME280;48558;48.242;11.654;2024-02-04T19:57:32;96932.38;;;9.04;90.85
62510;BME280;48558;48.242;11.654;2024-02-04T20:01:46;96898.53;;;9.03;90.53
62510;BME280;48558;48.242;11.654;2024-02-04T20:06:00;96931.50;;;9.07;91.33
62510;BME280;48558;48.242;11.654;2024-02-04T20:10:16;96932.91;;;8.99;91.42
62510;BME280;48558;48.242;11.654;2024-02-04T20:14:29;96921.69;;;8.93;91.76
62510;BME280;48558;48.242;11.654;2024-02-04T20:18:42;96925.13;;;9.10;90.97
62510;BME280;48558;48.242;11.654;2024-02-04T20:22:55;96932.84;;;9.02;91.40
62510;BME280;48558;48.242;11.654;2024-02-04T20:27:09;96908.44;;;8.88;91.29
62510;BME280;48558;48.242;11.654;2024-02-04T20:31:21;96921.22;;;8.95;91.57
62510;BME280;48558;48.242;11.654;2024-02-04T20:35:34;96932.31;;;9.20;90.18
62510;BME280;48558;48.242;11.654;2024-02-04T20:39:46;96936.41;;;9.15;90.43
62510;BME280;48558;48.242;11.654;2024-02-04T20:43:59;96862.69;;;8.62;90.71
62510;BME280;48558;48.242;11.654;2024-02-04T20:48:12;96890.06;;;8.69;91.52
62510;BME280;48558;48.242;11.654;2024-02-04T20:52:24;96913.69;;;8.83;92.14
62510;BME280;48558;48.242;11.654;2024-02-04T20:56:37;96927.38;;;8.86;92.62
62510;BME280;48558;48.242;11.654;2024-02-04T21:00:49;96908.91;;;8.99;91.84
62510;BME280;48558;48.242;11.654;2024-02-04T21:05:02;96903.47;;;8.96;91.35
62510;BME280;48558;48.242;11.654;2024-02-04T21:09:15;96914.66;;;9.17;90.06
62510;BME280;48558;48.242;11.654;2024-02-04T21:13:28;96915.66;;;9.11;90.37
62510;BME280;48558;48.242;11.654;2024-02-04T21:17:40;96900.97;;;9.14;89.54
62510;BME280;48558;48.242;11.654;2024-02-04T21:21:53;96901.47;;;9.37;87.63
62510;BME280;48558;48.242;11.654;2024-02-04T21:26:07;96909.41;;;9.35;87.35
62510;BME280;48558;48.242;11.654;2024-02-04T21:30:21;96901.91;;;9.49;85.96
62510;BME280;48558;48.242;11.654;2024-02-04T21:34:34;96910.94;;;9.24;87.13
62510;BME280;48558;48.242;11.654;2024-02-04T21:38:46;96903.50;;;9.08;87.83
62510;BME280;48558;48.242;11.654;2024-02-04T21:42:59;96903.97;;;9.19;87.70
62510;BME280;48558;48.242;11.654;2024-02-04T21:47:12;96894.06;;;9.22;87.23
62510;BME280;48558;48.242;11.654;2024-02-04T21:51:31;96887.63;;;9.25;86.92
62510;BME280;48558;48.242;11.654;2024-02-04T21:55:44;96890.50;;;9.21;86.59
62510;BME280;48558;48.242;11.654;2024-02-04T21:59:57;96884.22;;;9.08;87.48
62510;BME280;48558;48.242;11.654;2024-02-04T22:04:09;96884.75;;;9.16;86.42
62510;BME280;48558;48.242;11.654;2024-02-04T22:08:22;96888.28;;;9.16;85.92
62510;BME280;48558;48.242;11.654;2024-02-04T22:12:36;96891.00;;;8.91;87.63
62510;BME280;48558;48.242;11.654;2024-02-04T22:16:48;96876.13;;;8.89;87.27
62510;BME280;48558;48.242;11.654;2024-02-04T22:21:01;96896.56;;;9.04;86.67